Latest Coastal Weather Observations for Coles Point

IDS60701

Issued at 11:11 am CST Friday 6 May 2016 (issued every 10 minutes, with the page automatically refreshed every 10 minutes)

About coastal observations | Map of coastal stations | Coastal observations for SA | Marine services | Other Formats
Station Details ID: 018191 Name: COLES POINT Lat: -34.37 Lon: 135.37 Height: 28.0 m
Data from the previous 72 hours. | See also: Recent months at Coles Point
Date/Time
CST
Temp

°C
Wind Pressure Rain
since 9am
mm
Weather Cloud Vis
km
Sea
Height
m
Swell
Dir
 
Speed
knots
Gust
knots
hPa Trend Height
m
Period
s
Dir
06/11:00am 19.1 WSW 4 6 1015.3 - 0.0 - - - - - - -
06/10:30am 19.1 ESE 1 4 1015.6 - 0.0 - - - - - - -
06/10:00am 17.0 ENE 3 4 1015.6 - 0.0 - - - - - - -
06/09:30am 15.5 E 3 4 1015.7 - 0.0 - - - - - - -
06/09:00am 14.4 ENE 2 4 1015.6 - 0.2 - - - - - - -
06/08:30am 11.9 NE 5 5 1015.5 - 0.2 - - - - - - -
06/08:00am 11.5 NE 6 6 1015.2 - 0.2 - - - - - - -
06/07:30am 11.3 NE 6 8 1014.7 - 0.2 - - - - - - -
06/07:00am 11.6 NE 5 7 1014.4 - 0.2 - - - - - - -
06/06:30am 11.1 NE 5 6 1014.4 - 0.2 - - - - - - -
06/06:00am 11.6 ENE 2 3 1014.3 - 0.2 - - - - - - -
06/05:30am 11.1 CALM 0 2 1014.1 - 0.2 - - - - - - -
06/05:00am 11.5 ENE 3 6 1014.0 - 0.2 - - - - - - -
06/04:30am 12.4 NE 2 4 1013.7 - 0.2 - - - - - - -
06/04:00am 12.5 NE 3 6 1013.5 - 0.2 - - - - - - -
06/03:30am 12.3 SSE 1 5 1013.5 - 0.2 - - - - - - -
06/03:00am 13.3 SSW 1 3 1013.4 - 0.2 - - - - - - -
06/02:30am 12.6 SSW 2 4 1013.5 - 0.2 - - - - - - -
06/02:00am 13.4 CALM 0 0 1013.3 - 0.2 - - - - - - -
06/01:30am 12.8 CALM 0 0 1013.1 - 0.2 - - - - - - -
06/01:00am 12.8 CALM 0 0 1013.1 - 0.2 - - - - - - -
06/12:30am 12.8 SSW 1 1 1012.8 - 0.0 - - - - - - -
06/12:00am 13.5 CALM 0 0 1012.7 - 0.0 - - - - - - -
 
Date/Time
CST
Temp

°C
Wind Pressure Rain
since 9am
mm
Weather Cloud Vis
km
Sea
Height
m
Swell
Dir
 
Speed
knots
Gust
knots
hPa Trend Height
m
Period
s
Dir
05/11:30pm 15.2 SW 2 3 1012.9 - 0.0 - - - - - - -
05/11:00pm 15.5 W 3 4 1012.7 - 0.0 - - - - - - -
05/10:30pm 16.2 WSW 5 7 1012.6 - 0.0 - - - - - - -
05/10:00pm 14.8 NW 4 5 1012.4 - 0.0 - - - - - - -
05/09:30pm 16.1 WNW 6 7 1012.3 - 0.0 - - - - - - -
05/09:00pm 14.5 WNW 5 5 1012.1 - 0.0 - - - - - - -
05/08:30pm 15.5 NW 5 5 1011.7 - 0.0 - - - - - - -
05/08:00pm 16.7 NW 5 7 1011.5 - 0.0 - - - - - - -
05/07:30pm 17.8 WNW 6 11 1011.6 - 0.0 - - - - - - -
05/07:00pm 18.6 WNW 8 11 1011.1 - 0.0 - - - - - - -
05/06:30pm 18.8 NW 8 11 1010.9 - 0.0 - - - - - - -
05/06:00pm 17.9 NNW 6 8 1010.4 - 0.0 - - - - - - -
05/05:30pm 19.2 NW 8 10 1010.1 - 0.0 - - - - - - -
05/05:00pm 21.1 NNW 11 14 1010.0 - 0.0 - - - - - - -
05/04:30pm 21.9 NNW 11 16 1010.1 - 0.0 - - - - - - -
05/04:00pm 21.8 NNW 11 15 1010.1 - 0.0 - - - - - - -
05/03:30pm 22.5 NNW 13 17 1010.0 - 0.0 - - - - - - -
05/03:00pm 22.7 NNW 14 17 1010.0 - 0.0 - - - - - - -
05/02:30pm 22.3 NNW 15 18 1010.1 - 0.0 - - - - - - -
05/02:00pm 22.1 NNW 15 19 1010.4 - 0.0 - - - - - - -
05/01:30pm 22.0 NNW 14 17 1010.8 - 0.0 - - - - - - -
05/01:00pm 22.1 NNW 15 20 1011.0 - 0.0 - - - - - - -
05/12:30pm 22.0 NNW 15 20 1011.4 - 0.0 - - - - - - -
05/12:00pm 22.3 NNW 16 21 1011.8 - 0.0 - - - - - - -
05/11:30am 21.3 NNW 17 22 1012.2 - 0.0 - - - - - - -
05/11:00am 21.1 NNW 17 22 1012.6 - 0.0 - - - - - - -
05/10:30am 20.6 NNW 18 23 1012.9 - 0.0 - - - - - - -
05/10:00am 19.6 NNW 15 21 1013.1 - 0.0 - - - - - - -
05/09:30am 18.8 N 9 13 1013.4 - 0.0 - - - - - - -
05/09:00am 16.6 NNE 9 13 1013.3 - 0.6 - - - - - - -
05/08:30am 14.8 NNE 9 17 1013.2 - 0.6 - - - - - - -
05/08:00am 11.9 NE 9 11 1013.1 - 0.6 - - - - - - -
05/07:30am 11.1 NE 7 9 1013.0 - 0.6 - - - - - - -
05/07:00am 11.2 NE 10 12 1012.9 - 0.6 - - - - - - -
05/06:30am 11.3 NE 11 14 1012.9 - 0.6 - - - - - - -
05/06:00am 11.2 NE 8 11 1013.0 - 0.6 - - - - - - -
05/05:30am 11.3 NE 6 9 1013.1 - 0.6 - - - - - - -
05/05:00am 12.2 NNE 7 10 1013.0 - 0.6 - - - - - - -
05/04:30am 13.4 N 5 8 1013.0 - 0.6 - - - - - - -
05/04:00am 13.3 N 7 11 1012.9 - 0.6 - - - - - - -
05/03:30am 14.3 N 9 11 1013.0 - 0.6 - - - - - - -
05/03:00am 13.7 N 7 9 1013.2 - 0.6 - - - - - - -
05/02:30am 13.5 N 9 11 1013.5 - 0.6 - - - - - - -
05/02:00am 13.4 NNE 9 12 1013.7 - 0.6 - - - - - - -
05/01:30am 14.9 N 8 13 1013.7 - 0.6 - - - - - - -
05/01:00am 15.0 N 9 12 1014.0 - 0.6 - - - - - - -
05/12:30am 15.2 NNW 8 11 1014.4 - 0.6 - - - - - - -
05/12:00am 15.3 NNW 7 9 1014.5 - 0.6 - - - - - - -
 
Date/Time
CST
Temp

°C
Wind Pressure Rain
since 9am
mm
Weather Cloud Vis
km
Sea
Height
m
Swell
Dir
 
Speed
knots
Gust
knots
hPa Trend Height
m
Period
s
Dir
04/11:30pm 15.7 NNW 11 14 1014.7 - 0.6 - - - - - - -
04/11:00pm 15.7 NNW 12 16 1014.7 - 0.6 - - - - - - -
04/10:30pm 15.9 NNW 12 17 1015.1 - 0.6 - - - - - - -
04/10:00pm 15.9 NNW 11 16 1015.3 - 0.6 - - - - - - -
04/09:30pm 15.8 NNW 10 15 1015.4 - 0.6 - - - - - - -
04/09:00pm 15.9 NNW 8 12 1015.5 - 0.6 - - - - - - -
04/08:30pm 15.9 NNW 11 15 1015.4 - 0.6 - - - - - - -
04/08:00pm 15.9 NNW 12 16 1015.4 - 0.6 - - - - - - -
04/07:30pm 15.5 NNW 11 15 1015.2 - 0.6 - - - - - - -
04/07:00pm 15.6 NNW 11 14 1015.1 - 0.6 - - - - - - -
04/06:30pm 16.2 NW 11 15 1015.1 - 0.6 - - - - - - -
04/06:00pm 15.6 NNW 11 14 1014.8 - 0.6 Recent precip. - - - - - -
04/05:30pm 15.7 NNW 13 17 1014.8 - 0.6 - - - - - - -
04/05:00pm 16.7 NNW 12 16 1014.8 - 0.0 - - - - - - -
04/04:30pm 16.8 NNW 14 18 1014.6 - 0.0 - - - - - - -
04/04:00pm 17.5 NNW 16 19 1014.7 - 0.0 - - - - - - -
04/03:30pm 18.0 NNW 13 17 1014.6 - 0.0 - - - - - - -
04/03:00pm 18.0 NNW 13 18 1014.7 - 0.0 - - - - - - -
04/02:30pm 17.3 NNW 16 22 1014.9 - 0.0 - - - - - - -
04/02:00pm 18.8 NNW 14 18 1015.0 - 0.0 - - - - - - -
04/01:30pm 18.9 NW 13 17 1015.3 - 0.0 - - - - - - -
04/01:00pm 19.2 NW 13 17 1015.6 - 0.0 - - - - - - -
04/12:30pm 18.6 NW 12 16 1016.1 - 0.0 - - - - - - -
04/12:00pm 18.4 NW 12 15 1016.3 - 0.0 - - - - - - -
04/11:30am 17.5 NNW 12 15 1016.6 - 0.0 - - - - - - -
04/11:00am 17.4 NNW 11 14 1016.8 - 0.0 - - - - - - -
04/10:30am 17.6 NW 10 13 1016.9 - 0.0 - - - - - - -
04/10:00am 17.1 NNW 9 11 1016.9 - 0.0 - - - - - - -
04/09:30am 16.3 NW 9 13 1017.0 - 0.0 - - - - - - -
04/09:00am 16.5 NW 7 9 1017.0 - 0.8 - - - - - - -
04/08:30am 13.4 ENE 4 6 1016.8 - 0.8 - - - - - - -
04/08:00am 12.4 ENE 7 9 1016.5 - 0.8 - - - - - - -
04/07:30am 12.3 NE 5 5 1016.3 - 0.8 - - - - - - -
04/07:00am 12.1 NE 3 4 1016.0 - 0.8 - - - - - - -
04/06:30am 12.3 NE 3 5 1015.8 - 0.8 - - - - - - -
04/06:00am 11.8 N 2 4 1015.6 - 0.8 - - - - - - -
04/05:30am 11.9 CALM 0 0 1015.3 - 0.8 - - - - - - -
04/05:00am 11.1 CALM 0 2 1015.0 - 0.8 - - - - - - -
04/04:30am 12.5 S 2 3 1014.8 - 0.8 - - - - - - -
04/04:00am 13.2 SW 5 7 1014.9 - 0.8 - - - - - - -
04/03:30am 14.3 WNW 6 9 1014.7 - 0.8 - - - - - - -
04/03:00am 13.7 W 5 6 1014.9 - 0.8 - - - - - - -
04/02:30am 14.1 W 8 13 1015.0 - 0.8 - - - - - - -
04/02:00am 14.3 WSW 7 9 1015.0 - 0.8 - - - - - - -
04/01:30am 14.8 WSW 12 18 1015.1 - 0.8 - - - - - - -
04/01:00am 14.2 WSW 6 8 1014.9 - 0.8 - - - - - - -
04/12:30am 13.6 SW 6 9 1015.0 - 0.8 - - - - - - -
04/12:00am 13.6 SW 14 22 1015.1 - 0.8 - - - - - - -
 
Date/Time
CST
Temp

°C
Wind Pressure Rain
since 9am
mm
Weather Cloud Vis
km
Sea
Height
m
Swell
Dir
 
Speed
knots
Gust
knots
hPa Trend Height
m
Period
s
Dir
03/11:30pm 13.4 SW 9 12 1015.0 - 0.8 - - - - - - -
03/11:00pm 15.1 WSW 11 15 1015.0 - 0.8 - - - - - - -
03/10:30pm 15.2 WSW 11 15 1015.0 - 0.8 - - - - - - -
03/10:00pm 14.6 SW 11 15 1014.9 - 0.8 - - - - - - -
03/09:30pm 14.9 SW 10 16 1014.8 - 0.8 - - - - - - -
03/09:00pm 14.8 SW 10 15 1014.7 - 0.8 - - - - - - -
03/08:30pm 14.5 WSW 7 10 1014.3 - 0.8 - - - - - - -
03/08:00pm 15.1 WSW 13 17 1014.2 - 0.8 - - - - - - -
03/07:30pm 15.4 WSW 12 16 1013.5 - 0.8 - - - - - - -
03/07:00pm 14.6 WSW 14 21 1013.2 - 0.8 - - - - - - -
03/06:30pm 14.7 W 9 12 1012.7 - 0.6 - - - - - - -
03/06:00pm 15.5 WSW 13 16 1012.3 - 0.6 - - - - - - -
03/05:30pm 15.7 W 14 19 1011.8 - 0.6 - - - - - - -
03/05:00pm 15.8 WSW 14 21 1011.7 - 0.6 - - - - - - -
03/04:30pm 16.4 W 13 17 1011.1 - 0.4 - - - - - - -
03/04:00pm 16.2 WSW 12 17 1010.9 - 0.4 - - - - - - -
03/03:30pm 16.0 W 15 20 1010.6 - 0.4 - - - - - - -
03/03:00pm 15.8 W 14 18 1010.3 - 0.4 Recent precip. - - - - - -
03/02:30pm 18.0 W 15 19 1009.8 - 0.0 - - - - - - -
03/02:00pm 17.8 WSW 16 22 1009.7 - 0.0 - - - - - - -
03/01:30pm 18.5 WSW 14 20 1009.6 - 0.0 - - - - - - -
03/01:00pm 17.7 WSW 16 24 1009.7 - 0.0 - - - - - - -
03/12:30pm 16.0 WSW 21 31 1010.1 - 0.0 - - - - - - -
03/12:23pm 17.2 WSW 17 28 1009.8 - 0.0 - - - - - - -
03/12:00pm 18.6 W 16 23 1009.6 - 0.0 - - - - - - -
03/11:30am 15.8 W 19 27 1009.8 - 0.0 - - - - - - -

Other Formats:

Comma delimited format used in spreadsheet applications
http://www.bom.gov.au/fwo/IDS60701/IDS60701.94658.axf

JavaScript Object Notation format (JSON) in row-major order
http://www.bom.gov.au/fwo/IDS60701/IDS60701.94658.json